Terminal Aerodrome Forecast
Issued by NWS Charleston, WV

Current Version | Previous Version | Graphics & Text | Print | Product List | Glossary On
Versions: 1 2 3 4 5 6 7 8 9 10 11 12 13 14 15 16 17 18 19 20 21 22 23
998
FTUS41 KRLX 212320
TAFHTS
TAF
KHTS 212320Z 2200/2224 33004KT P6SM BKN080
     FM220400 35005KT P6SM VCSH OVC050
     FM220700 03007G15KT 6SM SHRA OVC025
     FM221300 04007G15KT 4SM SHRA OVC015
     FM222100 04007KT 6SM SHRA OVC025=

USA.gov is the U.S. government's official web portal to all federal, state and local government web resources and services.